createdAt,value
2023-01-03T00:00:03.511Z,100950.75
2023-01-03T00:02:31.307Z,100950.75
2023-01-03T00:05:00.503Z,100957.81
2023-01-03T00:07:37.363Z,100952.44
2023-01-03T00:10:05.818Z,100949.09
2023-01-03T00:12:32.444Z,100956.13
2023-01-03T00:15:00.136Z,100957.00
2023-01-03T00:17:27.811Z,100949.91
2023-01-03T00:19:55.435Z,100961.53
2023-01-03T00:22:24.513Z,100957.19
2023-01-03T00:24:53.073Z,100962.56
2023-01-03T00:27:20.717Z,100965.28
2023-01-03T00:29:48.320Z,100961.75
2023-01-03T00:32:16.029Z,100957.41
2023-01-03T00:34:44.342Z,100959.06
2023-01-03T00:37:12.021Z,100957.41
2023-01-03T00:39:41.020Z,100967.31
2023-01-03T00:42:08.739Z,100965.50
2023-01-03T00:44:36.381Z,100965.50
2023-01-03T00:47:04.028Z,100971.72
2023-01-03T00:49:31.690Z,100979.81
2023-01-03T00:51:59.489Z,100973.59
2023-01-03T00:54:27.200Z,100973.59
2023-01-03T00:56:56.184Z,100979.16
2023-01-03T00:59:23.855Z,100988.91
2023-01-03T01:01:52.137Z,100987.91
2023-01-03T01:04:20.351Z,100987.91
2023-01-03T01:06:48.382Z,100991.59
2023-01-03T01:09:16.846Z,100987.25
2023-01-03T01:11:44.909Z,100997.00
2023-01-03T01:14:23.130Z,100994.31
2023-01-03T01:16:51.429Z,100998.03
2023-01-03T01:19:19.204Z,100998.03
2023-01-03T01:21:46.860Z,100991.81
2023-01-03T01:24:18.036Z,100999.69
2023-01-03T01:26:46.154Z,101000.75
2023-01-03T01:29:15.429Z,100998.03
2023-01-03T01:31:43.142Z,101000.09
2023-01-03T01:34:10.829Z,101007.19
2023-01-03T01:36:39.567Z,100999.09
2023-01-03T01:39:08.745Z,101005.31
2023-01-03T01:41:54.136Z,101002.59
2023-01-03T01:44:40.410Z,101002.59
2023-01-03T01:47:09.953Z,101006.13
2023-01-03T01:49:37.637Z,101009.66
2023-01-03T01:52:05.351Z,101002.59
2023-01-03T01:54:33.018Z,101007.19
2023-01-03T01:57:00.889Z,101004.47
2023-01-03T01:59:28.831Z,101011.53
2023-01-03T02:01:56.558Z,100997.22
2023-01-03T02:04:26.045Z,101003.44
2023-01-03T02:06:53.652Z,100997.22
2023-01-03T02:09:21.236Z,101008.81
2023-01-03T02:12:12.444Z,101011.72
2023-01-03T02:14:43.357Z,101020.66
2023-01-03T02:17:11.932Z,101029.59
2023-01-03T02:19:50.209Z,101027.72
2023-01-03T02:22:33.805Z,101025.84
2023-01-03T02:25:14.077Z,101025.00
2023-01-03T02:27:51.701Z,101025.00
2023-01-03T02:30:30.369Z,101018.78
2023-01-03T02:32:59.539Z,101014.22
2023-01-03T02:35:29.035Z,101025.00
2023-01-03T02:37:58.353Z,101014.22
2023-01-03T02:40:26.722Z,101020.44
2023-01-03T02:43:02.259Z,101025.00
2023-01-03T02:45:35.946Z,101021.50
2023-01-03T02:48:04.611Z,101019.63
2023-01-03T02:50:32.737Z,101026.88
2023-01-03T02:53:02.861Z,101027.06
2023-01-03T02:55:31.251Z,101034.16
2023-01-03T02:57:59.945Z,101035.97
2023-01-03T03:00:27.924Z,101036.84
2023-01-03T03:02:58.449Z,101042.25
2023-01-03T03:05:26.844Z,101041.38
2023-01-03T03:07:54.499Z,101037.03
2023-01-03T03:10:39.527Z,101036.84
2023-01-03T03:13:14.327Z,101040.38
2023-01-03T03:15:43.572Z,101023.34
2023-01-03T03:18:13.135Z,101031.44
2023-01-03T03:20:58.150Z,101034.16
2023-01-03T03:23:44.273Z,101027.88
2023-01-03T03:26:12.319Z,101030.41
2023-01-03T03:28:39.525Z,101026.88
2023-01-03T03:31:08.096Z,101028.75
2023-01-03T03:33:37.801Z,101035.81
2023-01-03T03:36:06.173Z,101039.53
2023-01-03T03:38:34.774Z,101039.53
2023-01-03T03:41:22.708Z,101047.63
2023-01-03T03:44:10.447Z,101047.81
2023-01-03T03:46:39.351Z,101043.25
2023-01-03T03:49:26.651Z,101054.03
2023-01-03T03:51:55.257Z,101062.13
2023-01-03T03:54:22.925Z,101067.53
2023-01-03T03:56:51.318Z,101060.47
2023-01-03T03:59:18.944Z,101068.56
2023-01-03T04:01:46.785Z,101068.56
2023-01-03T04:04:16.614Z,101076.66
2023-01-03T04:06:44.617Z,101068.56
2023-01-03T04:09:12.303Z,101071.44
2023-01-03T04:11:40.035Z,101080.34
2023-01-03T04:14:07.931Z,101079.53
2023-01-03T04:16:37.744Z,101082.88
2023-01-03T04:19:05.685Z,101083.91
2023-01-03T04:21:36.547Z,101086.41
2023-01-03T04:24:04.494Z,101084.75
2023-01-03T04:26:32.135Z,101088.28
2023-01-03T04:28:59.793Z,101094.72
2023-01-03T04:31:27.489Z,101086.41
2023-01-03T04:33:55.186Z,101090.13
2023-01-03T04:36:22.824Z,101099.06
2023-01-03T04:38:51.888Z,101100.09
2023-01-03T04:41:19.737Z,101111.72
2023-01-03T04:44:04.938Z,101111.72
2023-01-03T04:46:33.231Z,101104.63
2023-01-03T04:49:00.906Z,101097.59
2023-01-03T04:51:28.642Z,101099.25
2023-01-03T04:53:57.845Z,101095.06
2023-01-03T04:56:26.155Z,101098.63
2023-01-03T04:58:53.807Z,101094.25
2023-01-03T05:01:21.523Z,101094.25
2023-01-03T05:03:49.333Z,101099.63
2023-01-03T05:06:17.013Z,101098.81
2023-01-03T05:08:45.449Z,101089.88
2023-01-03T05:11:14.722Z,101099.63
2023-01-03T05:13:42.469Z,101097.97
2023-01-03T05:16:10.866Z,101098.97
2023-01-03T05:18:38.629Z,101097.97
2023-01-03T05:21:24.702Z,101092.59
2023-01-03T05:24:09.673Z,101092.59
2023-01-03T05:26:39.605Z,101102.31
2023-01-03T05:29:07.253Z,101105.03
2023-01-03T05:31:34.952Z,101105.84
2023-01-03T05:34:02.751Z,101105.84
2023-01-03T05:36:30.353Z,101109.41
2023-01-03T05:38:57.944Z,101108.56
2023-01-03T05:41:42.739Z,101111.06
2023-01-03T05:44:11.866Z,101112.09
2023-01-03T05:46:39.515Z,101112.09
2023-01-03T05:49:07.216Z,101110.41
2023-01-03T05:51:34.853Z,101130.34
2023-01-03T05:54:02.524Z,101132.00
2023-01-03T05:56:31.308Z,101129.50
2023-01-03T05:58:58.959Z,101124.94
2023-01-03T06:01:28.612Z,101124.94
2023-01-03T06:03:57.467Z,101120.56
2023-01-03T06:06:25.119Z,101131.16
2023-01-03T06:08:53.562Z,101114.16
2023-01-03T06:11:21.245Z,101124.94
2023-01-03T06:13:51.052Z,101121.22
2023-01-03T06:16:36.213Z,101126.59
2023-01-03T06:19:05.656Z,101127.44
2023-01-03T06:21:33.371Z,101135.34
2023-01-03T06:24:01.051Z,101133.69
2023-01-03T06:26:28.666Z,101129.94
2023-01-03T06:28:56.311Z,101140.75
2023-01-03T06:31:24.130Z,101147.78
2023-01-03T06:33:51.844Z,101144.25
2023-01-03T06:36:21.679Z,101144.25
2023-01-03T06:38:49.318Z,101144.09
2023-01-03T06:41:17.038Z,101149.47
2023-01-03T06:43:44.702Z,101142.41
2023-01-03T06:46:29.909Z,101134.94
2023-01-03T06:49:14.956Z,101142.03
2023-01-03T06:52:01.626Z,101141.19
2023-01-03T06:54:30.664Z,101145.56
2023-01-03T06:56:58.313Z,101148.25
2023-01-03T06:59:25.993Z,101148.25
2023-01-03T07:01:53.890Z,101147.44
2023-01-03T07:04:21.953Z,101153.66
2023-01-03T07:06:51.080Z,101160.91
2023-01-03T07:09:18.824Z,101157.19
2023-01-03T07:11:46.482Z,101169.84
2023-01-03T07:14:13.254Z,101169.00
2023-01-03T07:16:41.444Z,101169.00
2023-01-03T07:19:09.534Z,101165.28
2023-01-03T07:21:37.412Z,101174.41
2023-01-03T07:24:06.667Z,101173.38
2023-01-03T07:26:34.418Z,101178.75
2023-01-03T07:29:04.471Z,101176.91
2023-01-03T07:31:32.933Z,101180.25
2023-01-03T07:34:00.863Z,101180.03
2023-01-03T07:36:28.536Z,101183.59
2023-01-03T07:38:56.550Z,101183.38
2023-01-03T07:41:46.470Z,101189.44
2023-01-03T07:44:13.063Z,101187.38
2023-01-03T07:46:41.844Z,101189.03
2023-01-03T07:49:11.887Z,101186.34
2023-01-03T07:51:39.936Z,101192.41
2023-01-03T07:54:08.021Z,101195.09
2023-01-03T07:56:37.245Z,101200.31
2023-01-03T07:59:04.913Z,101184.94
2023-01-03T08:01:33.615Z,101187.44
2023-01-03T08:04:01.343Z,101197.41
2023-01-03T08:06:29.795Z,101196.19
2023-01-03T08:09:15.053Z,101195.16
2023-01-03T08:12:01.653Z,101198.72
2023-01-03T08:14:29.274Z,101198.72
2023-01-03T08:16:57.266Z,101198.31
2023-01-03T08:19:24.882Z,101197.28
2023-01-03T08:21:52.563Z,101197.94
2023-01-03T08:24:20.431Z,101201.28
2023-01-03T08:26:49.569Z,101204.63
2023-01-03T08:29:17.763Z,101208.97
2023-01-03T08:31:45.813Z,101208.81
2023-01-03T08:34:18.503Z,101212.34
2023-01-03T08:36:48.914Z,101205.91
2023-01-03T08:39:17.193Z,101213.81
2023-01-03T08:41:45.852Z,101211.94
2023-01-03T08:44:14.829Z,101215.28
2023-01-03T08:46:43.900Z,101211.38
2023-01-03T08:49:11.566Z,101205.75
2023-01-03T08:51:40.389Z,101211.81
2023-01-03T08:54:08.111Z,101203.72
2023-01-03T08:56:38.706Z,101208.06
2023-01-03T08:59:07.049Z,101202.66
2023-01-03T09:01:36.250Z,101205.19
2023-01-03T09:04:06.112Z,101203.53
2023-01-03T09:06:34.138Z,101206.03
2023-01-03T09:09:05.454Z,101200.44
2023-01-03T09:11:33.132Z,101202.28
2023-01-03T09:14:01.094Z,101200.22
2023-01-03T09:16:29.920Z,101202.75
2023-01-03T09:19:00.097Z,101200.88
2023-01-03T09:21:29.845Z,101196.31
2023-01-03T09:23:58.659Z,101200.69
2023-01-03T09:26:26.307Z,101191.56
2023-01-03T09:28:54.667Z,101196.78
2023-01-03T09:31:22.435Z,101193.22
2023-01-03T09:33:50.880Z,101199.09
2023-01-03T09:36:19.921Z,101190.78
2023-01-03T09:38:47.569Z,101182.47
2023-01-03T09:41:18.759Z,101178.59
2023-01-03T09:43:46.991Z,101185.47
2023-01-03T09:46:17.475Z,101177.16
2023-01-03T09:48:45.148Z,101175.94
2023-01-03T09:51:31.509Z,101181.34
2023-01-03T09:54:18.212Z,101174.28
2023-01-03T09:57:03.791Z,101170.16
2023-01-03T09:59:51.009Z,101162.69
2023-01-03T10:02:41.600Z,101164.38
2023-01-03T10:05:18.768Z,101161.44
2023-01-03T10:07:51.422Z,101150.25
2023-01-03T10:10:21.948Z,101151.09
2023-01-03T10:12:54.414Z,101141.78
2023-01-03T10:15:24.230Z,101143.25
2023-01-03T10:17:56.447Z,101137.44
2023-01-03T10:20:27.998Z,101138.09
2023-01-03T10:23:02.859Z,101129.75
2023-01-03T10:25:31.829Z,101135.59
2023-01-03T10:28:01.361Z,101131.66
2023-01-03T10:30:33.609Z,101137.53
2023-01-03T10:33:05.253Z,101127.97
2023-01-03T10:35:33.864Z,101129.25
2023-01-03T10:38:01.503Z,101125.97
2023-01-03T10:40:35.448Z,101121.81
2023-01-03T10:43:14.249Z,101118.50
2023-01-03T10:45:55.497Z,101113.53
2023-01-03T10:48:23.235Z,101105.88
2023-01-03T10:50:52.314Z,101106.28
2023-01-03T10:53:21.448Z,101114.84
2023-01-03T10:55:51.622Z,101109.25
2023-01-03T10:58:28.014Z,101106.97
2023-01-03T11:01:11.582Z,101107.59
2023-01-03T11:03:51.130Z,101103.66
2023-01-03T11:06:19.846Z,101098.06
2023-01-03T11:08:47.823Z,101104.94
2023-01-03T11:11:29.576Z,101094.94
2023-01-03T11:14:06.327Z,101092.84
2023-01-03T11:16:34.835Z,101090.78
2023-01-03T11:19:03.044Z,101086.84
2023-01-03T11:21:32.168Z,101083.94
2023-01-03T11:24:03.448Z,101082.06
2023-01-03T11:26:38.077Z,101073.75
2023-01-03T11:29:12.437Z,101073.34
2023-01-03T11:31:43.479Z,101068.75
2023-01-03T11:34:17.374Z,101058.78
2023-01-03T11:36:48.934Z,101070.00
2023-01-03T11:39:26.791Z,101053.16
2023-01-03T11:42:00.095Z,101050.66
2023-01-03T11:44:45.610Z,101051.72
2023-01-03T11:47:17.083Z,101064.19
2023-01-03T11:49:47.704Z,101057.13
2023-01-03T11:52:19.971Z,101057.13
2023-01-03T11:54:56.630Z,101055.25
2023-01-03T11:57:28.647Z,101054.59
2023-01-03T12:00:00.319Z,101050.03
2023-01-03T12:02:36.262Z,101058.13
2023-01-03T12:05:07.841Z,101048.38
2023-01-03T12:07:48.171Z,101051.25
2023-01-03T12:10:17.183Z,101046.72
2023-01-03T12:13:04.109Z,101046.72
2023-01-03T12:15:34.746Z,101047.09
2023-01-03T12:18:05.245Z,101041.69
2023-01-03T12:20:33.348Z,101044.63
2023-01-03T12:23:02.120Z,101038.38
2023-01-03T12:25:31.754Z,101035.88
2023-01-03T12:28:02.178Z,101030.66
2023-01-03T12:30:33.284Z,101035.22
2023-01-03T12:33:03.322Z,101030.06
2023-01-03T12:35:32.658Z,101030.06
2023-01-03T12:38:00.408Z,101030.06
2023-01-03T12:40:30.718Z,101028.38
2023-01-03T12:43:00.440Z,101032.13
2023-01-03T12:45:34.603Z,101035.88
2023-01-03T12:48:06.223Z,101032.53
2023-01-03T12:50:35.049Z,101022.72
2023-01-03T12:53:03.716Z,101029.19
2023-01-03T12:55:33.276Z,101022.13
2023-01-03T12:58:09.388Z,101024.19
2023-01-03T13:01:04.129Z,101024.63
2023-01-03T13:03:36.090Z,101026.69
2023-01-03T13:06:04.340Z,101027.06
2023-01-03T13:08:35.123Z,101026.44
2023-01-03T13:11:04.202Z,101021.22
2023-01-03T13:13:32.530Z,101022.25
2023-01-03T13:16:00.262Z,101022.44
2023-01-03T13:18:37.312Z,101020.78
2023-01-03T13:21:32.032Z,101024.53
2023-01-03T13:24:00.578Z,101026.19
2023-01-03T13:26:28.817Z,101027.84
2023-01-03T13:29:12.038Z,101037.84
2023-01-03T13:31:40.429Z,101029.94
2023-01-03T13:34:13.857Z,101034.31
2023-01-03T13:37:00.002Z,101031.59
2023-01-03T13:39:38.298Z,101029.94
2023-01-03T13:42:06.006Z,101029.94
2023-01-03T13:44:34.480Z,101025.38
2023-01-03T13:47:02.245Z,101031.59
2023-01-03T13:49:32.146Z,101037.00
2023-01-03T13:51:59.948Z,101035.34
2023-01-03T13:54:38.386Z,101038.06
2023-01-03T13:57:07.625Z,101039.91
2023-01-03T13:59:37.231Z,101039.28
2023-01-03T14:02:15.796Z,101034.09
2023-01-03T14:04:56.056Z,101037.84
2023-01-03T14:07:34.183Z,101041.56
2023-01-03T14:10:07.460Z,101040.94
2023-01-03T14:12:38.805Z,101040.09
2023-01-03T14:15:19.832Z,101039.47
2023-01-03T14:17:53.997Z,101045.06
2023-01-03T14:20:23.989Z,101044.44
2023-01-03T14:22:51.969Z,101042.78
2023-01-03T14:25:32.824Z,101050.25
2023-01-03T14:28:01.293Z,101041.50
2023-01-03T14:30:29.755Z,101046.91
2023-01-03T14:32:58.139Z,101054.41
2023-01-03T14:35:33.896Z,101054.41
2023-01-03T14:38:06.697Z,101050.22
2023-01-03T14:40:35.028Z,101051.25
2023-01-03T14:43:05.223Z,101046.88
2023-01-03T14:45:32.936Z,101050.59
2023-01-03T14:48:02.164Z,101048.97
2023-01-03T14:50:30.370Z,101047.50
2023-01-03T14:53:00.984Z,101053.94
2023-01-03T14:55:29.387Z,101053.28
2023-01-03T14:57:58.573Z,101061.41
2023-01-03T15:00:32.609Z,101059.94
2023-01-03T15:03:01.703Z,101063.03
2023-01-03T15:05:30.385Z,101070.31
2023-01-03T15:08:12.023Z,101069.66
2023-01-03T15:10:42.773Z,101069.03
2023-01-03T15:13:15.141Z,101068.38
2023-01-03T15:15:42.879Z,101075.84
2023-01-03T15:18:14.693Z,101066.31
2023-01-03T15:20:46.425Z,101072.94
2023-01-03T15:23:23.074Z,101070.41
2023-01-03T15:25:52.187Z,101071.66
2023-01-03T15:28:25.850Z,101079.94
2023-01-03T15:30:53.858Z,101082.84
2023-01-03T15:33:23.151Z,101087.63
2023-01-03T15:35:51.142Z,101094.88
2023-01-03T15:38:22.171Z,101091.72
2023-01-03T15:40:50.383Z,101091.72
2023-01-03T15:43:22.407Z,101105.22
2023-01-03T15:45:51.808Z,101105.22
2023-01-03T15:48:20.309Z,101106.25
2023-01-03T15:50:49.360Z,101112.28
2023-01-03T15:53:28.169Z,101112.28
2023-01-03T15:56:01.060Z,101105.22
2023-01-03T15:58:29.642Z,101100.66
2023-01-03T16:00:58.090Z,101105.22
2023-01-03T16:03:25.984Z,101112.47
2023-01-03T16:05:54.429Z,101110.63
2023-01-03T16:08:25.006Z,101119.72
2023-01-03T16:10:54.788Z,101124.31
2023-01-03T16:13:23.330Z,101121.78
2023-01-03T16:15:51.900Z,101123.47
2023-01-03T16:18:21.606Z,101126.56
2023-01-03T16:20:49.969Z,101130.94
2023-01-03T16:23:22.335Z,101123.00
2023-01-03T16:25:52.246Z,101123.88
2023-01-03T16:28:21.304Z,101124.88
2023-01-03T16:30:50.131Z,101127.59
2023-01-03T16:33:18.874Z,101139.44
2023-01-03T16:35:47.296Z,101128.63
2023-01-03T16:38:15.528Z,101132.16
2023-01-03T16:40:44.727Z,101133.00
2023-01-03T16:43:12.426Z,101139.44
2023-01-03T16:45:47.337Z,101135.91
2023-01-03T16:48:16.521Z,101134.03
2023-01-03T16:50:46.113Z,101144.84
2023-01-03T16:53:19.085Z,101139.44
2023-01-03T16:55:48.127Z,101144.84
2023-01-03T16:58:17.690Z,101145.66
2023-01-03T17:00:47.575Z,101148.34
2023-01-03T17:03:15.409Z,101149.19
2023-01-03T17:05:44.311Z,101150.00
2023-01-03T17:08:16.173Z,101148.19
2023-01-03T17:10:47.009Z,101149.19
2023-01-03T17:13:20.711Z,101156.28
2023-01-03T17:15:50.586Z,101157.28
2023-01-03T17:18:18.781Z,101160.81
2023-01-03T17:20:46.420Z,101164.38
2023-01-03T17:23:16.172Z,101165.38
2023-01-03T17:25:43.848Z,101169.97
2023-01-03T17:28:12.211Z,101169.13
2023-01-03T17:30:39.971Z,101177.22
2023-01-03T17:33:11.165Z,101172.84
2023-01-03T17:35:38.903Z,101169.13
2023-01-03T17:38:26.808Z,101169.13
2023-01-03T17:40:55.353Z,101179.94
2023-01-03T17:43:24.332Z,101179.94
2023-01-03T17:46:14.889Z,101179.94
2023-01-03T17:49:06.176Z,101179.09
2023-01-03T17:51:33.890Z,101179.09
2023-01-03T17:54:03.218Z,101182.81
2023-01-03T17:56:36.407Z,101178.25
2023-01-03T17:59:05.605Z,101184.50
2023-01-03T18:01:34.126Z,101183.63
2023-01-03T18:04:09.478Z,101184.50
2023-01-03T18:06:38.442Z,101186.97
2023-01-03T18:09:06.558Z,101191.56
2023-01-03T18:11:35.077Z,101197.78
2023-01-03T18:14:02.756Z,101202.19
2023-01-03T18:16:35.299Z,101202.19
2023-01-03T18:19:04.352Z,101204.88
2023-01-03T18:21:33.947Z,101204.88
2023-01-03T18:24:02.268Z,101209.41
2023-01-03T18:26:32.713Z,101213.97
2023-01-03T18:29:00.419Z,101214.81
2023-01-03T18:31:30.340Z,101225.63
2023-01-03T18:33:59.716Z,101226.47
2023-01-03T18:36:29.012Z,101236.41
2023-01-03T18:39:00.389Z,101229.16
2023-01-03T18:41:28.665Z,101243.50
2023-01-03T18:43:56.336Z,101235.59
2023-01-03T18:46:27.407Z,101230.00
2023-01-03T18:48:55.128Z,101225.63
2023-01-03T18:51:25.329Z,101239.97
2023-01-03T18:53:55.288Z,101230.19
2023-01-03T18:56:30.998Z,101231.00
2023-01-03T18:59:02.423Z,101226.47
2023-01-03T19:01:30.389Z,101236.41
2023-01-03T19:03:59.546Z,101243.50
2023-01-03T19:06:30.556Z,101237.28
2023-01-03T19:09:03.302Z,101249.91
2023-01-03T19:11:31.559Z,101244.34
2023-01-03T19:14:03.289Z,101245.38
2023-01-03T19:16:31.371Z,101248.91
2023-01-03T19:18:59.121Z,101254.94
2023-01-03T19:21:28.254Z,101249.56
2023-01-03T19:23:58.663Z,101244.97
2023-01-03T19:26:31.309Z,101247.69
2023-01-03T19:29:00.230Z,101250.38
2023-01-03T19:31:30.044Z,101249.34
2023-01-03T19:33:57.742Z,101257.44
2023-01-03T19:36:25.394Z,101265.53
2023-01-03T19:38:53.946Z,101264.72
2023-01-03T19:41:21.960Z,101270.13
2023-01-03T19:43:52.411Z,101265.53
2023-01-03T19:46:20.346Z,101265.53
2023-01-03T19:48:48.062Z,101261.19
2023-01-03T19:51:17.460Z,101269.28
2023-01-03T19:53:45.181Z,101266.59
2023-01-03T19:56:21.709Z,101269.28
2023-01-03T19:58:50.179Z,101271.97
2023-01-03T20:01:21.052Z,101273.84
2023-01-03T20:03:49.061Z,101278.38
2023-01-03T20:06:18.673Z,101275.69
2023-01-03T20:08:46.347Z,101281.97
2023-01-03T20:11:18.835Z,101278.38
2023-01-03T20:13:47.213Z,101283.78
2023-01-03T20:16:15.025Z,101275.91
2023-01-03T20:18:45.300Z,101275.91
2023-01-03T20:21:21.408Z,101275.91
2023-01-03T20:23:51.328Z,101281.31
2023-01-03T20:26:20.800Z,101289.19
2023-01-03T20:28:50.426Z,101291.91
2023-01-03T20:31:20.546Z,101288.38
2023-01-03T20:33:51.467Z,101291.91
2023-01-03T20:36:23.168Z,101289.84
2023-01-03T20:38:53.381Z,101299.81
2023-01-03T20:41:21.112Z,101290.88
2023-01-03T20:43:50.221Z,101297.13
2023-01-03T20:46:20.737Z,101293.59
2023-01-03T20:48:51.545Z,101289.84
2023-01-03T20:51:37.583Z,101291.72
2023-01-03T20:54:05.355Z,101296.28
2023-01-03T20:56:35.456Z,101300.84
2023-01-03T20:59:03.907Z,101297.28
2023-01-03T21:01:33.019Z,101289.41
2023-01-03T21:04:02.971Z,101298.34
2023-01-03T21:06:43.006Z,101292.09
2023-01-03T21:09:16.449Z,101285.00
2023-01-03T21:11:44.113Z,101293.97
2023-01-03T21:14:13.526Z,101291.28
2023-01-03T21:16:42.145Z,101279.63
2023-01-03T21:19:13.605Z,101284.19
2023-01-03T21:21:41.301Z,101289.59
2023-01-03T21:24:09.148Z,101284.19
2023-01-03T21:26:37.658Z,101288.75
2023-01-03T21:29:05.467Z,101295.81
2023-01-03T21:31:34.071Z,101287.91
2023-01-03T21:34:02.149Z,101294.16
2023-01-03T21:36:32.675Z,101294.16
2023-01-03T21:39:01.538Z,101297.69
2023-01-03T21:43:58.269Z,101282.53
2023-01-03T21:46:26.313Z,101284.19
2023-01-03T21:48:58.455Z,101292.28
2023-01-03T21:51:41.607Z,101292.28
2023-01-03T21:54:11.513Z,101294.16
2023-01-03T21:56:46.716Z,101292.50
2023-01-03T21:59:15.625Z,101295.38
2023-01-03T22:02:12.344Z,101290.81
2023-01-03T22:04:40.973Z,101289.13
2023-01-03T22:07:08.611Z,101295.38
2023-01-03T22:09:55.883Z,101292.03
2023-01-03T22:12:23.499Z,101296.59
2023-01-03T22:14:51.229Z,101288.50
2023-01-03T22:17:19.715Z,101292.22
2023-01-03T22:19:47.443Z,101299.47
2023-01-03T22:22:15.981Z,101304.88
2023-01-03T22:24:44.994Z,101301.34
2023-01-03T22:27:12.942Z,101303.22
2023-01-03T22:29:41.369Z,101303.22
2023-01-03T22:32:10.459Z,101298.84
2023-01-03T22:34:39.532Z,101298.00
2023-01-03T22:37:07.141Z,101298.84
2023-01-03T22:39:34.890Z,101289.91
2023-01-03T22:42:04.718Z,101298.84
2023-01-03T22:44:32.384Z,101300.72
2023-01-03T22:47:00.849Z,101289.06
2023-01-03T22:49:28.593Z,101296.16
2023-01-03T22:51:56.276Z,101299.84
2023-01-03T22:56:56.775Z,101294.44
2023-01-03T22:59:27.411Z,101293.63
2023-01-03T23:01:55.219Z,101297.16
2023-01-03T23:04:24.341Z,101287.41
2023-01-03T23:06:52.777Z,101295.50
2023-01-03T23:09:20.509Z,101289.25
2023-01-03T23:12:06.447Z,101291.97
2023-01-03T23:14:35.561Z,101291.13
2023-01-03T23:17:24.767Z,101290.28
2023-01-03T23:19:52.392Z,101285.91
2023-01-03T23:22:20.031Z,101289.44
2023-01-03T23:24:48.492Z,101294.00
2023-01-03T23:27:16.237Z,101289.44
2023-01-03T23:29:46.000Z,101294.19
2023-01-03T23:32:13.642Z,101301.47
2023-01-03T23:34:41.808Z,101303.97
2023-01-03T23:37:09.499Z,101301.47
2023-01-03T23:39:37.134Z,101300.63
2023-01-03T23:42:05.126Z,101302.28
2023-01-03T23:44:33.348Z,101297.94
2023-01-03T23:47:07.685Z,101308.72
2023-01-03T23:49:38.863Z,101314.13
2023-01-03T23:52:06.554Z,101322.22
2023-01-03T23:54:34.260Z,101312.25
2023-01-03T23:57:02.059Z,101309.56
2023-01-03T23:59:29.996Z,101314.94
